Edgerton, Canada
Current Conditions -  °F | °C
As of 9:00 AM on Monday 24 Nov 2014 (Local Time) from CYLL Reporting Station
Overcast Overcast  
Wind Chill: 10°   Ceiling: 1200
Heat Index: 21°   Visibility: 12mi
Dew Point: 18°   Wind: 10mph
Humidity: 86%   Direction: 310°NW
Pressure: 29.9"   Gusts: NA
Location:  52.75°N, 110.45°W
Report Text: CYLL 241600Z 31009KT 12SM BKN012 OVC240 M06/M08 A2990 RMK SC7CI1 SLP173
Loading
Personal Weather Stations






























Interactive Weather Map New forecast layout! Learn more

10-Day Weather Forecast

Advertisements
Track Severe Weather on mobile